Time;durP1;ratioP1;P1;durP2;ratioP2;P2;SDS_P1;SDS_P2;PMS_P1;PMS_P2;Temp;Humidity;BMP_temperature;BMP_pressure;BME280_temperature;BME280_humidity;BME280_pressure;Samples;Min_cycle;Max_cycle;Signal;HPM_P1;HPM_P2
2023/07/19 00:01:23;;;;;;;12.67;6.60;;;19.20;99.90;;;;;;5038169;28;20186;-58
2023/07/19 00:03:49;;;;;;;12.50;6.50;;;19.20;99.90;;;;;;5037707;28;20704;-59
2023/07/19 00:06:14;;;;;;;15.50;6.43;;;19.10;99.90;;;;;;5041710;28;20207;-58
2023/07/19 00:08:40;;;;;;;14.07;6.30;;;19.20;99.90;;;;;;5038493;28;20261;-57
2023/07/19 00:11:06;;;;;;;13.00;6.47;;;19.10;99.90;;;;;;5038826;28;20692;-58
2023/07/19 00:13:31;;;;;;;10.70;6.67;;;19.10;99.90;;;;;;5038492;28;20229;-58
2023/07/19 00:15:57;;;;;;;9.03;5.93;;;19.00;99.90;;;;;;5044949;28;20241;-58
2023/07/19 00:18:23;;;;;;;9.87;5.70;;;19.00;99.90;;;;;;5042145;28;20237;-59
2023/07/19 00:20:49;;;;;;;9.67;6.43;;;19.00;99.90;;;;;;5036501;28;20963;-58
2023/07/19 00:23:15;;;;;;;9.40;5.80;;;19.00;99.90;;;;;;5041705;28;20178;-58
2023/07/19 00:25:40;;;;;;;9.97;6.77;;;18.90;99.90;;;;;;5039623;28;20203;-58
2023/07/19 00:28:06;;;;;;;15.07;7.03;;;18.90;99.90;;;;;;5040437;28;21020;-58
2023/07/19 00:30:32;;;;;;;13.17;5.70;;;18.80;99.90;;;;;;5041205;28;20183;-59
2023/07/19 00:32:57;;;;;;;10.87;5.93;;;18.80;99.90;;;;;;5039444;28;20648;-59
2023/07/19 00:35:23;;;;;;;12.97;6.53;;;18.70;99.90;;;;;;5042236;28;20183;-58
2023/07/19 00:37:48;;;;;;;11.40;6.13;;;18.70;99.90;;;;;;5045001;28;20684;-58
2023/07/19 00:40:14;;;;;;;14.57;7.10;;;18.70;99.90;;;;;;5041899;28;20183;-58
2023/07/19 00:42:40;;;;;;;11.37;6.47;;;18.70;99.90;;;;;;5039003;28;20198;-57
2023/07/19 00:45:06;;;;;;;8.50;5.60;;;18.60;99.90;;;;;;5039393;28;20210;-57
2023/07/19 00:47:33;;;;;;;10.30;5.57;;;18.60;99.90;;;;;;5036947;28;20213;-60
2023/07/19 00:49:59;;;;;;;8.57;5.97;;;18.50;99.90;;;;;;5043998;28;20508;-58
2023/07/19 00:52:25;;;;;;;10.10;6.00;;;18.50;99.90;;;;;;5041539;28;20532;-58
2023/07/19 00:54:50;;;;;;;9.27;6.23;;;18.40;99.90;;;;;;5043692;28;20278;-57
2023/07/19 00:57:17;;;;;;;8.83;6.43;;;18.40;99.90;;;;;;5033759;28;21189;-58
2023/07/19 00:59:44;;;;;;;12.33;6.80;;;18.30;99.90;;;;;;5041959;28;20180;-58
2023/07/19 01:02:10;;;;;;;14.20;6.40;;;18.30;99.90;;;;;;5042277;28;20433;-58
2023/07/19 01:04:36;;;;;;;9.20;6.47;;;18.30;99.90;;;;;;5040248;28;20850;-58
2023/07/19 01:07:03;;;;;;;11.10;6.40;;;18.30;99.90;;;;;;5043006;28;20579;-58
2023/07/19 01:09:29;;;;;;;12.10;6.43;;;18.30;99.90;;;;;;5038613;28;20652;-58
2023/07/19 01:11:55;;;;;;;8.97;6.57;;;18.30;99.90;;;;;;5043344;28;20948;-58
2023/07/19 01:14:20;;;;;;;10.77;5.50;;;18.30;99.90;;;;;;5040083;28;20430;-58
2023/07/19 01:16:46;;;;;;;12.40;6.43;;;18.30;99.90;;;;;;5037182;28;20195;-57
2023/07/19 01:19:15;;;;;;;15.60;6.20;;;18.30;99.90;;;;;;5036181;28;20199;-57
2023/07/19 01:21:41;;;;;;;10.70;6.27;;;18.20;99.90;;;;;;5040406;28;20194;-58
2023/07/19 01:24:06;;;;;;;12.20;6.47;;;18.30;99.90;;;;;;5040135;28;20422;-58
2023/07/19 01:26:32;;;;;;;9.70;5.63;;;18.20;99.90;;;;;;5044583;28;20209;-58
2023/07/19 01:28:57;;;;;;;11.73;6.33;;;18.20;99.90;;;;;;5037903;28;20203;-58
2023/07/19 01:31:23;;;;;;;9.43;7.00;;;18.20;99.90;;;;;;5043217;28;21449;-58
2023/07/19 01:33:49;;;;;;;9.73;6.07;;;18.10;99.90;;;;;;5036430;28;20203;-58
2023/07/19 01:36:14;;;;;;;10.70;7.03;;;18.10;99.90;;;;;;5033946;28;20199;-58
2023/07/19 01:38:41;;;;;;;7.93;5.60;;;18.10;99.90;;;;;;5038893;28;20568;-57
2023/07/19 01:41:07;;;;;;;11.33;5.90;;;18.00;99.90;;;;;;5040284;28;20286;-59
2023/07/19 01:43:34;;;;;;;9.73;6.93;;;18.00;99.90;;;;;;5037357;28;20491;-58
2023/07/19 01:46:00;;;;;;;10.60;6.63;;;18.00;99.90;;;;;;5034089;28;20202;-59
2023/07/19 01:48:25;;;;;;;7.73;5.47;;;17.90;99.90;;;;;;5035758;28;20527;-58
2023/07/19 01:50:51;;;;;;;10.30;6.60;;;17.90;99.90;;;;;;5032097;28;20207;-59
2023/07/19 01:53:16;;;;;;;11.10;6.90;;;17.90;99.90;;;;;;5034679;28;20183;-58
2023/07/19 01:55:42;;;;;;;9.80;6.70;;;17.90;99.90;;;;;;5033801;28;20200;-57
2023/07/19 01:58:09;;;;;;;9.73;6.73;;;17.80;99.90;;;;;;5040522;28;20197;-58
2023/07/19 02:00:34;;;;;;;8.00;6.20;;;17.80;99.90;;;;;;5037849;28;20686;-58
2023/07/19 02:03:00;;;;;;;11.00;6.50;;;17.80;99.90;;;;;;5039491;28;20524;-58
2023/07/19 02:05:26;;;;;;;9.40;6.50;;;17.80;99.90;;;;;;5033155;28;20230;-58
2023/07/19 02:07:52;;;;;;;13.83;6.30;;;17.70;99.90;;;;;;5038920;28;20277;-58
2023/07/19 02:10:17;;;;;;;8.63;5.63;;;17.70;99.90;;;;;;5031972;28;21002;-58
2023/07/19 02:12:43;;;;;;;12.87;6.27;;;17.60;99.90;;;;;;5040410;28;20203;-58
2023/07/19 02:15:09;;;;;;;9.87;6.47;;;17.60;99.90;;;;;;5037139;28;20191;-57
2023/07/19 02:17:35;;;;;;;9.63;5.80;;;17.50;99.90;;;;;;5034915;28;20783;-57
2023/07/19 02:20:01;;;;;;;11.50;7.07;;;17.50;99.90;;;;;;5038405;28;20436;-57
2023/07/19 02:22:26;;;;;;;9.90;7.37;;;17.50;99.90;;;;;;5041983;28;21198;-56
2023/07/19 02:24:52;;;;;;;10.03;6.30;;;17.40;99.90;;;;;;5043267;28;20178;-58
2023/07/19 02:27:17;;;;;;;10.20;6.70;;;17.40;99.90;;;;;;5046086;28;20203;-59
2023/07/19 02:29:43;;;;;;;12.43;6.70;;;17.40;99.90;;;;;;5042688;28;20795;-58
2023/07/19 02:32:09;;;;;;;11.70;6.60;;;17.40;99.90;;;;;;5045752;28;20179;-58
2023/07/19 02:34:34;;;;;;;9.67;6.30;;;17.40;99.90;;;;;;5042825;28;20297;-58
2023/07/19 02:37:00;;;;;;;10.30;6.23;;;17.30;99.90;;;;;;5041744;28;20723;-60
2023/07/19 02:39:27;;;;;;;9.47;6.10;;;17.30;99.90;;;;;;5047333;28;20214;-58
2023/07/19 02:41:53;;;;;;;12.80;6.90;;;17.30;99.90;;;;;;5045422;28;20175;-59
2023/07/19 02:44:19;;;;;;;12.57;7.40;;;17.30;99.90;;;;;;5039536;28;20450;-57
2023/07/19 02:46:44;;;;;;;12.13;6.70;;;17.30;99.90;;;;;;5040483;28;20671;-59
2023/07/19 02:49:11;;;;;;;13.50;7.17;;;17.30;99.90;;;;;;5040437;28;20199;-57
2023/07/19 02:51:37;;;;;;;10.43;6.43;;;17.30;99.90;;;;;;5038570;28;20252;-58
2023/07/19 02:54:02;;;;;;;10.43;6.40;;;17.40;99.90;;;;;;5040158;28;20928;-59
2023/07/19 02:56:28;;;;;;;10.27;6.43;;;17.40;99.90;;;;;;5042461;28;20224;-58
2023/07/19 02:58:54;;;;;;;9.70;6.60;;;17.40;99.90;;;;;;5042882;28;20673;-59
2023/07/19 03:01:19;;;;;;;15.93;6.53;;;17.40;99.90;;;;;;5039764;28;20184;-58
2023/07/19 03:03:45;;;;;;;16.50;6.90;;;17.50;99.90;;;;;;5039066;28;20563;-58
2023/07/19 03:06:11;;;;;;;10.20;6.50;;;17.50;99.90;;;;;;5041237;28;20700;-58
2023/07/19 03:08:38;;;;;;;16.40;7.60;;;17.40;99.90;;;;;;5043268;28;20195;-58
2023/07/19 03:11:08;;;;;;;9.67;6.80;;;17.40;99.90;;;;;;5042893;28;20526;-58
2023/07/19 03:13:34;;;;;;;19.57;7.17;;;17.40;99.90;;;;;;5036480;28;20421;-59
2023/07/19 03:16:00;;;;;;;9.10;6.20;;;17.30;99.90;;;;;;5042335;28;20478;-58
2023/07/19 03:18:25;;;;;;;12.67;8.07;;;17.30;99.90;;;;;;5037315;28;20187;-58
2023/07/19 03:20:59;;;;;;;10.47;6.30;;;17.30;99.90;;;;;;5039748;28;20179;-58
2023/07/19 03:23:25;;;;;;;16.87;7.00;;;17.30;99.90;;;;;;5036978;28;20187;-58
2023/07/19 03:25:51;;;;;;;11.87;6.43;;;17.20;99.90;;;;;;5034706;28;20458;-58
2023/07/19 03:28:17;;;;;;;9.27;5.70;;;17.20;99.90;;;;;;5036438;28;20673;-58
2023/07/19 03:30:42;;;;;;;9.63;6.70;;;17.20;99.90;;;;;;5023148;28;20716;-58
2023/07/19 03:33:08;;;;;;;17.57;7.20;;;17.10;99.90;;;;;;5033782;28;20548;-57
2023/07/19 03:35:34;;;;;;;13.30;7.40;;;17.10;99.90;;;;;;5036097;28;20195;-57
2023/07/19 03:37:59;;;;;;;11.03;7.13;;;17.10;99.90;;;;;;5039661;28;20314;-58
2023/07/19 03:40:25;;;;;;;11.50;6.90;;;17.10;99.90;;;;;;5038190;28;20187;-57
2023/07/19 03:42:51;;;;;;;13.30;7.33;;;17.10;99.90;;;;;;5037446;28;20184;-59
2023/07/19 03:45:16;;;;;;;13.40;6.80;;;17.00;99.90;;;;;;5039245;28;20216;-57
2023/07/19 03:47:42;;;;;;;12.33;6.20;;;17.10;99.90;;;;;;5033218;28;20214;-56
2023/07/19 03:50:08;;;;;;;11.03;6.40;;;17.10;99.90;;;;;;5031257;28;20198;-57
2023/07/19 03:52:33;;;;;;;14.70;6.70;;;17.10;99.90;;;;;;5020697;28;20179;-58
2023/07/19 03:54:59;;;;;;;11.37;7.43;;;17.10;99.90;;;;;;5027883;28;20222;-61
2023/07/19 03:57:25;;;;;;;13.53;6.93;;;17.20;99.90;;;;;;5032683;28;20309;-61
2023/07/19 03:59:51;;;;;;;10.07;6.53;;;17.20;99.90;;;;;;5024005;28;20172;-61
2023/07/19 04:02:17;;;;;;;7.80;5.67;;;17.30;99.90;;;;;;5031412;28;20179;-61
2023/07/19 04:04:42;;;;;;;11.80;7.03;;;17.30;99.90;;;;;;5030628;28;20622;-61
2023/07/19 04:07:08;;;;;;;11.13;6.70;;;17.30;99.90;;;;;;5021672;28;20532;-61
2023/07/19 04:09:34;;;;;;;12.63;7.03;;;17.20;99.90;;;;;;5027972;28;20216;-61
2023/07/19 04:12:00;;;;;;;16.07;6.80;;;17.20;99.90;;;;;;5017375;28;20228;-60
2023/07/19 04:14:25;;;;;;;13.30;6.80;;;17.20;99.90;;;;;;5032521;28;20193;-60
2023/07/19 04:16:51;;;;;;;16.77;7.90;;;17.20;99.90;;;;;;5033757;28;20449;-60
2023/07/19 04:19:16;;;;;;;8.90;6.40;;;17.20;99.90;;;;;;5036726;28;20648;-59
2023/07/19 04:21:42;;;;;;;14.37;7.07;;;17.10;99.90;;;;;;5036192;28;20581;-58
2023/07/19 04:24:08;;;;;;;11.47;6.53;;;17.10;99.90;;;;;;5034389;28;20175;-58
2023/07/19 04:26:33;;;;;;;15.17;6.90;;;17.10;99.90;;;;;;5038854;28;20203;-58
2023/07/19 04:28:59;;;;;;;9.90;6.90;;;17.20;99.90;;;;;;5040927;28;20222;-59
2023/07/19 04:31:24;;;;;;;12.00;6.80;;;17.20;99.90;;;;;;5042715;28;20183;-59
2023/07/19 04:33:50;;;;;;;12.27;7.73;;;17.20;99.90;;;;;;5035520;28;20635;-59
2023/07/19 04:36:16;;;;;;;18.30;7.00;;;17.30;99.90;;;;;;5043553;28;20191;-59
2023/07/19 04:38:42;;;;;;;12.23;7.60;;;17.40;99.90;;;;;;5041696;28;20269;-58
2023/07/19 04:41:09;;;;;;;10.10;6.27;;;17.30;99.90;;;;;;5039654;28;20659;-58
2023/07/19 04:43:34;;;;;;;15.63;7.00;;;17.40;99.90;;;;;;5035615;28;21518;-58
2023/07/19 04:46:00;;;;;;;13.47;6.77;;;17.40;99.90;;;;;;5036484;28;20458;-59
2023/07/19 04:48:26;;;;;;;12.70;6.87;;;17.40;99.90;;;;;;5037698;28;20237;-57
2023/07/19 04:50:56;;;;;;;11.60;7.00;;;17.40;99.90;;;;;;5035826;28;20258;-58
2023/07/19 04:53:22;;;;;;;10.40;7.13;;;17.40;99.90;;;;;;5031437;28;20203;-59
2023/07/19 04:55:52;;;;;;;10.30;6.87;;;17.50;99.90;;;;;;5038868;28;20458;-58
2023/07/19 04:58:18;;;;;;;13.80;7.17;;;17.50;99.90;;;;;;5035230;28;20521;-59
2023/07/19 05:00:44;;;;;;;15.20;7.40;;;17.60;99.90;;;;;;5034760;28;20445;-59
2023/07/19 05:03:11;;;;;;;9.07;6.70;;;17.70;99.90;;;;;;5036701;28;20438;-59
2023/07/19 05:05:36;;;;;;;14.87;6.90;;;17.80;99.90;;;;;;5032125;28;20238;-58
2023/07/19 05:08:04;;;;;;;12.37;6.50;;;17.80;99.90;;;;;;5037796;28;21115;-58
2023/07/19 05:10:30;;;;;;;12.90;7.60;;;17.90;99.90;;;;;;5038391;28;20179;-59
2023/07/19 05:12:56;;;;;;;12.73;7.00;;;17.90;99.90;;;;;;5030846;28;20438;-58
2023/07/19 05:15:22;;;;;;;21.30;8.03;;;18.00;99.90;;;;;;5029136;28;20479;-57
2023/07/19 05:17:47;;;;;;;10.40;7.07;;;18.00;99.90;;;;;;5031333;28;20652;-58
2023/07/19 05:20:13;;;;;;;14.27;7.00;;;18.00;99.90;;;;;;5036497;28;20252;-58
2023/07/19 05:22:39;;;;;;;16.83;7.70;;;18.00;99.90;;;;;;5039815;28;20175;-59
2023/07/19 05:25:05;;;;;;;13.10;7.03;;;18.00;99.90;;;;;;5036118;28;21825;-59
2023/07/19 05:27:31;;;;;;;10.20;6.57;;;18.10;99.90;;;;;;5039448;28;20985;-58
2023/07/19 05:29:56;;;;;;;14.37;7.27;;;18.20;99.90;;;;;;5035667;28;20529;-59
2023/07/19 05:32:22;;;;;;;16.70;11.30;;;18.30;99.90;;;;;;5031363;28;20187;-59
2023/07/19 05:34:47;;;;;;;26.47;16.63;;;18.50;99.90;;;;;;5031758;28;20199;-60
2023/07/19 05:37:13;;;;;;;20.83;12.10;;;18.60;99.90;;;;;;5039663;28;20264;-60
2023/07/19 05:39:39;;;;;;;15.03;10.77;;;18.70;99.90;;;;;;5036171;28;20195;-59
2023/07/19 05:42:05;;;;;;;14.70;8.83;;;18.70;99.90;;;;;;5035154;28;20643;-59
2023/07/19 05:44:31;;;;;;;23.73;8.90;;;18.80;99.90;;;;;;5032460;28;20187;-60
2023/07/19 05:46:56;;;;;;;17.13;7.70;;;18.90;99.90;;;;;;5037114;28;20549;-58
2023/07/19 05:49:22;;;;;;;11.20;7.80;;;18.90;99.90;;;;;;5025028;28;20180;-58
2023/07/19 05:51:48;;;;;;;14.33;6.57;;;19.00;99.90;;;;;;5030246;28;20180;-58
2023/07/19 05:54:14;;;;;;;16.83;7.77;;;19.10;99.90;;;;;;5031692;28;20191;-57
2023/07/19 05:56:39;;;;;;;14.53;7.70;;;19.10;99.90;;;;;;5034676;28;20231;-57
2023/07/19 05:59:05;;;;;;;13.23;7.70;;;19.20;99.90;;;;;;5034762;28;20429;-56
2023/07/19 06:01:31;;;;;;;12.47;9.47;;;19.30;99.90;;;;;;5031051;28;20190;-57
2023/07/19 06:03:56;;;;;;;17.63;11.13;;;19.30;99.90;;;;;;5040339;28;20576;-57
2023/07/19 06:06:22;;;;;;;21.70;13.00;;;19.40;99.90;;;;;;5038886;28;20229;-57
2023/07/19 06:08:48;;;;;;;26.00;13.90;;;19.50;99.90;;;;;;5037889;28;20298;-57
2023/07/19 06:11:13;;;;;;;20.43;13.23;;;19.60;99.90;;;;;;5040735;28;20250;-58
2023/07/19 06:13:39;;;;;;;22.90;14.80;;;19.70;99.90;;;;;;5041099;28;20902;-57
2023/07/19 06:16:04;;;;;;;22.37;13.43;;;19.90;99.90;;;;;;5042089;28;20286;-58
2023/07/19 06:18:30;;;;;;;14.17;9.23;;;20.00;99.90;;;;;;5037626;28;21141;-56
2023/07/19 06:20:56;;;;;;;17.13;10.20;;;20.10;99.90;;;;;;5034844;28;20203;-58
2023/07/19 06:23:22;;;;;;;14.50;8.20;;;20.20;99.90;;;;;;5042297;28;20300;-57
2023/07/19 06:25:49;;;;;;;10.33;6.50;;;20.40;99.90;;;;;;5041462;28;20294;-57
2023/07/19 06:28:15;;;;;;;10.80;6.30;;;20.50;98.60;;;;;;5040103;28;20462;-57
2023/07/19 06:30:41;;;;;;;11.37;6.97;;;20.70;97.70;;;;;;5033356;28;20438;-58
2023/07/19 06:33:06;;;;;;;12.20;6.20;;;20.70;96.70;;;;;;5038001;28;20479;-57
2023/07/19 06:35:33;;;;;;;13.03;5.27;;;20.80;96.60;;;;;;5045954;28;20460;-57
2023/07/19 06:37:59;;;;;;;8.67;5.87;;;20.80;96.60;;;;;;5038162;28;20187;-58
2023/07/19 06:40:26;;;;;;;11.27;4.67;;;20.90;93.50;;;;;;5034851;28;21324;-58
2023/07/19 06:42:55;;;;;;;14.07;6.27;;;20.90;83.40;;;;;;5043498;28;20507;-58
2023/07/19 06:45:20;;;;;;;9.07;5.30;;;21.00;79.60;;;;;;5039511;28;20533;-58
2023/07/19 06:47:46;;;;;;;6.20;4.97;;;21.10;75.40;;;;;;5041935;28;20544;-58
2023/07/19 06:50:13;;;;;;;11.13;5.03;;;21.30;77.10;;;;;;5033892;28;20235;-58
2023/07/19 06:52:38;;;;;;;9.27;5.70;;;21.40;72.20;;;;;;5033259;28;20840;-57
2023/07/19 06:55:04;;;;;;;7.60;4.77;;;21.50;69.90;;;;;;5038186;28;20213;-57
2023/07/19 06:57:31;;;;;;;9.80;5.30;;;21.60;68.30;;;;;;5035122;28;20261;-58
2023/07/19 06:59:57;;;;;;;7.43;4.93;;;21.70;67.70;;;;;;5037434;28;20512;-58
2023/07/19 07:02:23;;;;;;;10.53;5.30;;;21.80;69.00;;;;;;5032810;28;20426;-57
2023/07/19 07:04:50;;;;;;;10.27;5.30;;;21.90;67.30;;;;;;5037720;28;20445;-58
2023/07/19 07:07:19;;;;;;;7.93;4.73;;;22.00;67.00;;;;;;5045375;28;20212;-58
2023/07/19 07:09:45;;;;;;;9.57;4.90;;;22.00;66.00;;;;;;5041118;28;20460;-58
2023/07/19 07:12:11;;;;;;;8.20;4.83;;;22.10;65.30;;;;;;5044638;28;20440;-55
2023/07/19 07:14:37;;;;;;;6.73;5.13;;;22.10;64.60;;;;;;5037813;28;20418;-58
2023/07/19 07:17:03;;;;;;;7.43;5.23;;;22.20;64.20;;;;;;5042025;28;20199;-58
2023/07/19 07:19:29;;;;;;;8.53;5.17;;;22.30;63.80;;;;;;5041095;28;20421;-57
2023/07/19 07:21:54;;;;;;;8.87;5.23;;;22.50;65.10;;;;;;5043839;28;21158;-57
2023/07/19 07:24:20;;;;;;;9.13;4.93;;;22.80;65.10;;;;;;5043620;28;20183;-57
2023/07/19 07:26:46;;;;;;;7.37;5.40;;;23.00;64.70;;;;;;5035325;28;20850;-57
2023/07/19 07:29:11;;;;;;;6.70;4.83;;;23.10;62.50;;;;;;5037597;28;20208;-57
2023/07/19 07:31:37;;;;;;;6.97;5.10;;;23.20;62.30;;;;;;5045452;28;20256;-57
2023/07/19 07:34:02;;;;;;;13.53;5.57;;;23.20;61.60;;;;;;5043205;28;20175;-56
2023/07/19 07:36:28;;;;;;;8.60;5.10;;;23.30;61.70;;;;;;5040417;28;20226;-56
2023/07/19 07:38:54;;;;;;;9.00;5.17;;;23.40;61.10;;;;;;5039503;28;20637;-56
2023/07/19 07:41:19;;;;;;;9.70;4.93;;;23.40;59.90;;;;;;5042956;28;20184;-56
2023/07/19 07:43:45;;;;;;;6.17;4.83;;;23.30;59.50;;;;;;5044438;28;20187;-57
2023/07/19 07:46:10;;;;;;;6.90;5.20;;;23.30;59.70;;;;;;5037064;28;20219;-60
2023/07/19 07:48:36;;;;;;;11.63;5.40;;;23.20;60.00;;;;;;5037714;28;20212;-56
2023/07/19 07:51:01;;;;;;;8.77;5.10;;;23.30;60.80;;;;;;5044442;28;20187;-56
2023/07/19 07:53:27;;;;;;;11.03;5.17;;;23.30;60.30;;;;;;5040872;28;20187;-56
2023/07/19 07:55:53;;;;;;;7.90;5.40;;;23.20;59.60;;;;;;5045978;28;20199;-56
2023/07/19 07:58:19;;;;;;;9.37;5.07;;;23.20;59.30;;;;;;5039811;28;20210;-57
2023/07/19 08:00:45;;;;;;;11.27;5.40;;;23.30;59.30;;;;;;5040223;28;20431;-55
2023/07/19 08:03:11;;;;;;;9.53;5.40;;;23.30;59.40;;;;;;5034756;28;20496;-56
2023/07/19 08:05:38;;;;;;;8.70;5.73;;;23.40;60.00;;;;;;5043077;28;20545;-56
2023/07/19 08:08:05;;;;;;;8.13;5.50;;;23.50;60.00;;;;;;5038836;28;20212;-57
2023/07/19 08:10:32;;;;;;;7.10;5.30;;;23.60;58.20;;;;;;5037550;28;20429;-58
2023/07/19 08:12:57;;;;;;;8.77;5.50;;;23.60;57.30;;;;;;5044657;28;20422;-57
2023/07/19 08:15:26;;;;;;;7.37;5.10;;;23.60;57.70;;;;;;5042756;28;20436;-56
2023/07/19 08:17:52;;;;;;;9.47;5.93;;;23.70;57.40;;;;;;5040662;28;20187;-56
2023/07/19 08:20:18;;;;;;;6.23;4.70;;;23.70;57.60;;;;;;5041786;28;20430;-57
2023/07/19 08:22:43;;;;;;;7.20;5.10;;;23.80;58.30;;;;;;5047093;28;20438;-56
2023/07/19 08:25:09;;;;;;;14.60;5.77;;;23.90;58.30;;;;;;5049700;28;20167;-57
2023/07/19 08:27:35;;;;;;;9.27;5.60;;;24.00;57.80;;;;;;5034866;28;20900;-57
2023/07/19 08:30:04;;;;;;;10.23;6.03;;;24.10;58.00;;;;;;5030031;28;20187;-57
2023/07/19 08:32:32;;;;;;;8.67;5.67;;;24.10;56.50;;;;;;5045470;28;20229;-57
2023/07/19 08:34:57;;;;;;;10.60;5.23;;;24.10;56.20;;;;;;5040528;28;20512;-57
2023/07/19 08:37:23;;;;;;;8.67;5.90;;;24.10;55.90;;;;;;5044798;28;20966;-56
2023/07/19 08:39:49;;;;;;;8.10;5.10;;;24.20;56.60;;;;;;5040278;28;20183;-56
2023/07/19 08:42:15;;;;;;;9.43;5.83;;;24.30;56.20;;;;;;5033208;28;20211;-58
2023/07/19 08:44:40;;;;;;;10.20;5.77;;;24.20;54.90;;;;;;5031853;28;20188;-56
2023/07/19 08:47:09;;;;;;;9.90;6.30;;;24.10;55.60;;;;;;5036410;28;20456;-56
2023/07/19 08:49:36;;;;;;;11.60;5.80;;;24.00;53.40;;;;;;5034829;28;20259;-56
2023/07/19 08:52:05;;;;;;;9.67;6.00;;;24.00;52.60;;;;;;5039210;28;21020;-56
2023/07/19 08:54:31;;;;;;;11.63;5.50;;;24.00;52.60;;;;;;5035365;28;20421;-56
2023/07/19 08:56:56;;;;;;;7.63;5.23;;;24.00;52.00;;;;;;5035089;28;21024;-56
2023/07/19 08:59:22;;;;;;;9.20;5.33;;;24.00;51.80;;;;;;5040039;28;20655;-56
2023/07/19 09:01:47;;;;;;;9.47;6.00;;;24.10;52.20;;;;;;5039751;28;20266;-56
2023/07/19 09:04:13;;;;;;;7.30;4.73;;;24.20;53.70;;;;;;5037382;28;20644;-56
2023/07/19 09:06:41;;;;;;;8.53;6.00;;;24.30;52.40;;;;;;5042462;28;20202;-56
2023/07/19 09:09:09;;;;;;;8.80;5.10;;;24.30;52.30;;;;;;5033889;28;20245;-56
2023/07/19 09:11:35;;;;;;;9.40;5.10;;;24.40;52.50;;;;;;5039186;28;21031;-56
2023/07/19 09:14:00;;;;;;;7.50;4.63;;;24.40;52.00;;;;;;5036053;28;20465;-56
2023/07/19 09:16:31;;;;;;;10.13;5.03;;;24.40;51.80;;;;;;5035630;28;20205;-55
2023/07/19 09:18:58;;;;;;;7.33;5.33;;;24.30;52.70;;;;;;5035858;28;20657;-56
2023/07/19 09:21:31;;;;;;;7.13;5.47;;;24.30;53.00;;;;;;5032687;28;20437;-56
2023/07/19 09:23:57;;;;;;;11.23;5.40;;;24.30;53.30;;;;;;5033117;28;20434;-56
2023/07/19 09:26:23;;;;;;;7.20;5.60;;;24.30;52.80;;;;;;5036516;28;20438;-57
2023/07/19 09:28:51;;;;;;;12.57;5.63;;;24.40;52.30;;;;;;5034262;28;20484;-56
2023/07/19 09:31:17;;;;;;;8.43;4.90;;;24.50;53.30;;;;;;5036683;28;20178;-56
2023/07/19 09:33:42;;;;;;;8.30;5.20;;;24.60;53.30;;;;;;5039283;28;20425;-56
2023/07/19 09:36:08;;;;;;;8.30;5.20;;;24.60;52.90;;;;;;5043020;28;20203;-56
2023/07/19 09:38:33;;;;;;;6.20;4.57;;;24.50;53.80;;;;;;5035358;28;20186;-56
2023/07/19 09:40:59;;;;;;;5.40;4.50;;;24.60;54.80;;;;;;5031065;28;20171;-56
2023/07/19 09:43:25;;;;;;;10.17;5.13;;;24.70;55.10;;;;;;5039999;28;20230;-56
2023/07/19 09:45:51;;;;;;;9.47;4.80;;;24.80;55.10;;;;;;5032155;28;20564;-56
2023/07/19 09:48:18;;;;;;;13.80;6.27;;;25.00;54.50;;;;;;5035377;28;20218;-56
2023/07/19 09:50:49;;;;;;;11.90;5.33;;;25.20;53.90;;;;;;5031737;28;20433;-56
2023/07/19 09:53:15;;;;;;;7.23;4.97;;;25.40;52.30;;;;;;5036258;28;20426;-58
2023/07/19 09:55:45;;;;;;;7.80;5.47;;;25.40;52.00;;;;;;5039318;28;20574;-57
2023/07/19 09:58:13;;;;;;;8.13;4.80;;;25.40;51.40;;;;;;5045185;28;20425;-57
2023/07/19 10:00:39;;;;;;;7.07;4.77;;;25.40;50.90;;;;;;5043684;28;20490;-57
2023/07/19 10:03:11;;;;;;;9.63;5.50;;;25.40;52.30;;;;;;5043561;28;20429;-57
2023/07/19 10:05:37;;;;;;;13.27;6.00;;;25.50;51.40;;;;;;5039905;28;20469;-57
2023/07/19 10:08:10;;;;;;;9.07;5.37;;;25.50;52.10;;;;;;5040899;28;20835;-56
2023/07/19 10:10:40;;;;;;;9.70;5.30;;;25.60;51.50;;;;;;5034394;28;20460;-59
2023/07/19 10:13:06;;;;;;;6.70;4.73;;;25.50;50.60;;;;;;5037616;28;20824;-56
2023/07/19 10:15:34;;;;;;;7.83;5.50;;;25.40;52.00;;;;;;5029291;28;20425;-57
2023/07/19 10:18:00;;;;;;;8.30;5.20;;;25.30;51.50;;;;;;5036021;28;20512;-57
2023/07/19 10:20:35;;;;;;;10.70;5.73;;;25.30;52.10;;;;;;5033521;28;20436;-57
2023/07/19 10:23:05;;;;;;;10.00;5.53;;;25.50;52.10;;;;;;5040150;28;20429;-57
2023/07/19 10:25:48;;;;;;;10.20;5.00;;;25.70;52.70;;;;;;5034163;28;20937;-56
2023/07/19 10:28:24;;;;;;;9.23;5.50;;;25.90;50.30;;;;;;5036350;28;20468;-56
2023/07/19 10:30:51;;;;;;;8.87;4.53;;;25.80;48.60;;;;;;5029577;28;20428;-57
2023/07/19 10:33:20;;;;;;;7.20;5.20;;;25.90;48.20;;;;;;5035734;28;20479;-56
2023/07/19 10:35:49;;;;;;;9.57;5.03;;;26.10;46.50;;;;;;5034636;28;20932;-57
2023/07/19 10:38:20;;;;;;;7.27;5.27;;;26.30;47.60;;;;;;5043247;28;20463;-56
2023/07/19 10:41:03;;;;;;;9.97;5.23;;;26.20;45.10;;;;;;5033622;28;20425;-56
2023/07/19 10:43:31;;;;;;;10.10;5.57;;;26.10;45.90;;;;;;5040848;28;20941;-55
2023/07/19 10:46:03;;;;;;;8.13;5.30;;;25.90;45.80;;;;;;5034674;28;20456;-56
2023/07/19 10:48:33;;;;;;;8.90;4.80;;;25.80;46.60;;;;;;5037202;28;20484;-56
2023/07/19 10:51:00;;;;;;;7.93;4.93;;;25.70;47.30;;;;;;5035979;28;20424;-57
2023/07/19 10:53:27;;;;;;;6.47;4.70;;;25.60;47.30;;;;;;5038748;28;20514;-58
2023/07/19 10:55:58;;;;;;;6.83;4.73;;;25.60;47.70;;;;;;5035183;28;20991;-57
2023/07/19 10:58:24;;;;;;;8.20;5.07;;;25.40;47.00;;;;;;5035912;28;20430;-58
2023/07/19 11:00:51;;;;;;;9.10;4.70;;;25.50;47.20;;;;;;5026884;28;20954;-57
2023/07/19 11:03:22;;;;;;;7.33;5.07;;;25.70;47.10;;;;;;5028835;28;20997;-58
2023/07/19 11:05:50;;;;;;;4.87;4.30;;;25.90;46.80;;;;;;5034550;28;21221;-57
2023/07/19 11:08:23;;;;;;;6.10;5.00;;;26.30;46.80;;;;;;5032216;28;20559;-57
2023/07/19 11:10:50;;;;;;;5.97;4.47;;;26.60;46.60;;;;;;5032991;28;20433;-58
2023/07/19 11:13:18;;;;;;;10.10;4.73;;;26.90;45.70;;;;;;5033857;28;20449;-58
2023/07/19 11:15:55;;;;;;;6.80;4.17;;;27.10;44.60;;;;;;5040862;28;20282;-58
2023/07/19 11:18:34;;;;;;;7.60;5.10;;;27.30;44.40;;;;;;5040336;28;20326;-58
2023/07/19 11:21:00;;;;;;;6.10;4.27;;;27.30;45.20;;;;;;5036319;28;20932;-58
2023/07/19 11:23:26;;;;;;;6.87;4.37;;;27.40;45.80;;;;;;5043978;28;20270;-59
2023/07/19 11:26:06;;;;;;;6.23;4.40;;;27.40;45.50;;;;;;5034064;28;20199;-57
2023/07/19 11:28:38;;;;;;;9.00;5.17;;;27.10;43.70;;;;;;5032515;28;20206;-57
2023/07/19 11:31:05;;;;;;;6.57;4.87;;;27.00;43.80;;;;;;5035261;28;20638;-57
2023/07/19 11:33:30;;;;;;;10.17;6.67;;;27.10;43.60;;;;;;5038860;28;21097;-58
2023/07/19 11:35:56;;;;;;;9.87;5.50;;;27.30;45.10;;;;;;5034572;28;20282;-58
2023/07/19 11:38:22;;;;;;;8.10;4.83;;;27.60;44.00;;;;;;5040158;28;20190;-58
2023/07/19 11:40:48;;;;;;;8.77;4.47;;;27.80;43.50;;;;;;5038462;28;20210;-59
2023/07/19 11:43:13;;;;;;;6.97;4.83;;;28.10;43.80;;;;;;5037168;28;20219;-59
2023/07/19 11:45:39;;;;;;;6.80;4.90;;;28.30;41.90;;;;;;5038617;28;20195;-58
2023/07/19 11:48:05;;;;;;;7.87;4.77;;;28.40;42.30;;;;;;5033974;28;20217;-58
2023/07/19 11:50:30;;;;;;;6.70;4.20;;;28.50;43.30;;;;;;5039576;28;20163;-58
2023/07/19 11:53:00;;;;;;;6.50;4.95;;;28.70;41.80;;;;;;5036418;28;20175;-57
2023/07/19 11:55:26;;;;;;;7.35;4.90;;;28.80;41.10;;;;;;5038288;28;20660;-58
2023/07/19 11:57:53;;;;;;;6.45;4.85;;;28.90;41.60;;;;;;5036583;28;20263;-58
2023/07/19 12:00:21;;;;;;;7.18;4.85;;;29.00;41.00;;;;;;5033303;28;20558;-58
2023/07/19 12:02:49;;;;;;;4.78;4.25;;;29.10;42.40;;;;;;5039009;28;20178;-56
2023/07/19 12:05:17;;;;;;;6.70;4.72;;;29.20;43.00;;;;;;5038227;28;20249;-57
2023/07/19 12:07:43;;;;;;;12.50;4.60;;;29.40;40.00;;;;;;5043645;28;20700;-55
2023/07/19 12:10:09;;;;;;;5.90;4.60;;;29.50;39.50;;;;;;5042935;28;20175;-55
2023/07/19 12:12:35;;;;;;;5.80;4.55;;;29.20;35.80;;;;;;5039523;28;20240;-54
2023/07/19 12:15:04;;;;;;;5.90;4.50;;;29.10;37.70;;;;;;5039594;28;20182;-55
2023/07/19 12:17:31;;;;;;;8.43;4.18;;;29.20;36.80;;;;;;5041167;28;20694;-55
2023/07/19 12:19:59;;;;;;;4.80;3.63;;;29.20;36.40;;;;;;5038056;28;20183;-55
2023/07/19 12:22:26;;;;;;;4.18;3.17;;;29.30;36.40;;;;;;5038901;28;20232;-55
2023/07/19 12:24:52;;;;;;;4.30;3.85;;;29.40;36.20;;;;;;5033595;28;20184;-55
2023/07/19 12:27:18;;;;;;;6.43;3.88;;;29.40;35.30;;;;;;5041683;28;20193;-56
2023/07/19 12:29:44;;;;;;;7.57;4.43;;;29.40;34.80;;;;;;5034420;28;20180;-56
2023/07/19 12:32:09;;;;;;;6.53;3.70;;;29.30;35.80;;;;;;5040829;28;20182;-56
2023/07/19 12:34:35;;;;;;;6.90;3.95;;;29.40;35.40;;;;;;5039233;28;20261;-56
2023/07/19 12:37:00;;;;;;;4.30;3.65;;;29.50;36.50;;;;;;5042567;28;20204;-56